Time;durP1;ratioP1;P1;durP2;ratioP2;P2;SDS_P1;SDS_P2;PMS_P1;PMS_P2;Temp;Humidity;BMP_temperature;BMP_pressure;BME280_temperature;BME280_humidity;BME280_pressure;Samples;Min_cycle;Max_cycle;Signal;HPM_P1;HPM_P2
2021/07/05 00:01:06;;;;;;;3.38;0.55;;;14.70;99.90;;;;;;5036545;28;20487;-76
2021/07/05 00:03:32;;;;;;;6.30;0.60;;;14.70;99.90;;;;;;5005244;28;20069;-76
2021/07/05 00:05:58;;;;;;;4.40;0.60;;;14.70;99.90;;;;;;5008538;28;20030;-76
2021/07/05 00:08:23;;;;;;;2.75;0.82;;;14.60;99.90;;;;;;5009575;28;20080;-77
2021/07/05 00:10:49;;;;;;;4.18;0.52;;;14.70;99.90;;;;;;5007721;28;20030;-76
2021/07/05 00:13:15;;;;;;;2.10;0.57;;;14.60;99.90;;;;;;4996103;28;20452;-76
2021/07/05 00:15:41;;;;;;;4.35;0.85;;;14.60;99.90;;;;;;4989561;28;20030;-76
2021/07/05 00:18:08;;;;;;;2.15;0.60;;;14.60;99.90;;;;;;5006804;28;20033;-76
2021/07/05 00:20:37;;;;;;;2.15;0.40;;;14.50;99.90;;;;;;5007727;28;20034;-76
2021/07/05 00:23:04;;;;;;;2.15;0.68;;;14.50;99.90;;;;;;5007483;28;20037;-77
2021/07/05 00:25:30;;;;;;;3.63;0.75;;;14.40;99.90;;;;;;5009115;28;20030;-77
2021/07/05 00:27:55;;;;;;;2.60;0.50;;;14.40;99.90;;;;;;5005743;28;20095;-76
2021/07/05 00:30:21;;;;;;;5.85;0.50;;;14.40;99.90;;;;;;5004422;28;20375;-76
2021/07/05 00:32:48;;;;;;;3.80;0.70;;;14.40;99.90;;;;;;4990880;28;20038;-76
2021/07/05 00:35:14;;;;;;;1.77;0.47;;;14.40;99.90;;;;;;5001061;28;20042;-76
2021/07/05 00:37:40;;;;;;;2.38;0.47;;;14.40;99.90;;;;;;4992324;28;20042;-76
2021/07/05 00:40:07;;;;;;;3.38;0.50;;;14.30;99.90;;;;;;5003058;28;20652;-76
2021/07/05 00:42:34;;;;;;;5.97;0.60;;;14.40;99.90;;;;;;4996700;28;20048;-76
2021/07/05 00:44:59;;;;;;;1.67;0.60;;;14.50;99.90;;;;;;5001992;28;20030;-76
2021/07/05 00:47:25;;;;;;;4.22;0.50;;;14.60;99.90;;;;;;5000801;28;20076;-76
2021/07/05 00:49:51;;;;;;;2.75;0.60;;;14.60;99.90;;;;;;5009546;28;20072;-77
2021/07/05 00:52:16;;;;;;;1.67;0.40;;;14.70;99.90;;;;;;5007822;28;20080;-76
2021/07/05 00:54:43;;;;;;;4.03;0.50;;;14.70;99.90;;;;;;5007454;28;20029;-76
2021/07/05 00:57:20;;;;;;;4.80;0.70;;;14.70;99.90;;;;;;5007898;28;20097;-76
2021/07/05 00:59:53;;;;;;;4.75;0.80;;;14.60;99.90;;;;;;4999545;28;20498;-76
2021/07/05 01:02:20;;;;;;;5.43;0.65;;;14.60;99.90;;;;;;4996765;28;20040;-77
2021/07/05 01:04:46;;;;;;;1.77;0.50;;;14.60;99.90;;;;;;4991083;28;20530;-76
2021/07/05 01:07:12;;;;;;;1.88;0.50;;;14.60;99.90;;;;;;4989103;28;20425;-77
2021/07/05 01:09:39;;;;;;;3.83;0.82;;;14.60;99.90;;;;;;5005226;28;20504;-76
2021/07/05 01:12:05;;;;;;;3.75;0.60;;;14.60;99.90;;;;;;5008604;28;20034;-76
2021/07/05 01:14:31;;;;;;;2.47;0.50;;;14.70;99.90;;;;;;5033026;28;20019;-77
2021/07/05 01:16:57;;;;;;;4.38;0.50;;;14.80;99.90;;;;;;4993445;28;20034;-77
2021/07/05 01:19:23;;;;;;;3.30;0.68;;;14.80;99.90;;;;;;4988864;28;20573;-76
2021/07/05 01:21:50;;;;;;;7.30;0.65;;;14.80;99.90;;;;;;4996472;28;20093;-77
2021/07/05 01:24:15;;;;;;;2.38;0.43;;;14.80;99.90;;;;;;5002729;28;20111;-76
2021/07/05 01:26:41;;;;;;;2.95;0.65;;;14.80;99.90;;;;;;4995812;28;20042;-76
2021/07/05 01:29:07;;;;;;;4.32;0.93;;;14.70;99.90;;;;;;4993393;28;20022;-76
2021/07/05 01:31:34;;;;;;;1.98;0.70;;;14.70;99.90;;;;;;5011539;28;20096;-76
2021/07/05 01:34:01;;;;;;;2.58;0.70;;;14.60;99.90;;;;;;5009309;28;20688;-77
2021/07/05 01:36:27;;;;;;;5.07;0.45;;;14.60;99.90;;;;;;4994828;28;20364;-76
2021/07/05 01:38:52;;;;;;;2.60;0.50;;;14.60;99.90;;;;;;5012206;28;20044;-76
2021/07/05 01:41:19;;;;;;;4.20;0.75;;;14.60;99.90;;;;;;5011141;28;20040;-76
2021/07/05 01:43:45;;;;;;;2.35;0.40;;;14.70;99.90;;;;;;5006267;28;20033;-77
2021/07/05 01:46:12;;;;;;;2.88;0.60;;;14.60;99.90;;;;;;4991934;28;20033;-77
2021/07/05 01:48:37;;;;;;;3.35;0.50;;;14.60;99.90;;;;;;5010153;28;20475;-76
2021/07/05 01:51:03;;;;;;;2.10;0.43;;;14.70;99.90;;;;;;5012364;28;20092;-76
2021/07/05 01:53:29;;;;;;;2.30;0.50;;;14.70;99.90;;;;;;5011164;28;20365;-77
2021/07/05 01:55:55;;;;;;;2.90;0.50;;;14.70;99.90;;;;;;5012083;28;20040;-76
2021/07/05 01:58:21;;;;;;;4.00;0.60;;;14.60;99.90;;;;;;5003742;28;20133;-76
2021/07/05 02:00:48;;;;;;;3.10;0.70;;;14.60;99.90;;;;;;4992458;28;20427;-76
2021/07/05 02:03:15;;;;;;;4.60;0.68;;;14.70;99.90;;;;;;5000285;28;20038;-76
2021/07/05 02:05:42;;;;;;;6.40;0.63;;;14.60;99.90;;;;;;4992364;28;20035;-76
2021/07/05 02:08:08;;;;;;;4.80;0.70;;;14.50;99.90;;;;;;4992145;28;20038;-76
2021/07/05 02:10:37;;;;;;;3.70;0.60;;;14.60;99.90;;;;;;5010235;28;20084;-77
2021/07/05 02:13:13;;;;;;;4.68;1.08;;;14.50;99.90;;;;;;5011316;28;20080;-77
2021/07/05 02:15:40;;;;;;;2.45;0.50;;;14.50;99.90;;;;;;5009786;28;20475;-76
2021/07/05 02:18:06;;;;;;;10.27;0.77;;;14.40;99.90;;;;;;5038900;28;20046;-76
2021/07/05 02:20:32;;;;;;;4.07;0.60;;;14.40;99.90;;;;;;4994852;28;20026;-77
2021/07/05 02:23:00;;;;;;;5.07;0.70;;;14.40;99.90;;;;;;5003023;28;20040;-76
2021/07/05 02:25:29;;;;;;;1.75;0.40;;;14.40;99.90;;;;;;5003424;28;20034;-76
2021/07/05 02:27:57;;;;;;;5.15;0.80;;;14.30;99.90;;;;;;4991038;28;20030;-76
2021/07/05 02:30:25;;;;;;;1.60;0.40;;;14.40;99.90;;;;;;5005779;28;20038;-76
2021/07/05 02:32:52;;;;;;;3.42;0.52;;;14.30;99.90;;;;;;5003176;28;20879;-77
2021/07/05 02:35:20;;;;;;;3.53;0.60;;;14.30;99.90;;;;;;5009716;28;20057;-76
2021/07/05 02:37:48;;;;;;;2.10;0.60;;;14.40;99.90;;;;;;5001549;28;20065;-76
2021/07/05 02:40:16;;;;;;;3.78;0.60;;;14.40;99.90;;;;;;4990792;28;20042;-76
2021/07/05 02:42:43;;;;;;;1.75;0.40;;;14.40;99.90;;;;;;4989724;28;20866;-76
2021/07/05 02:45:13;;;;;;;2.75;0.50;;;14.30;99.90;;;;;;4997918;28;20026;-76
2021/07/05 02:47:39;;;;;;;1.95;0.63;;;14.40;99.90;;;;;;5011149;28;20061;-76
2021/07/05 02:50:07;;;;;;;2.25;0.45;;;14.30;99.90;;;;;;5010135;28;20065;-76
2021/07/05 02:52:33;;;;;;;1.98;0.40;;;14.40;99.90;;;;;;5009464;28;21118;-76
2021/07/05 02:54:59;;;;;;;3.05;0.50;;;14.40;99.90;;;;;;5005078;28;20057;-76
2021/07/05 02:57:30;;;;;;;2.72;0.32;;;14.40;99.90;;;;;;4990878;28;20096;-77
2021/07/05 03:00:10;;;;;;;3.55;0.40;;;14.40;99.90;;;;;;4992762;28;20141;-76
2021/07/05 03:02:36;;;;;;;3.75;0.65;;;14.40;99.90;;;;;;5010472;28;20045;-76
2021/07/05 03:05:07;;;;;;;2.40;0.60;;;14.30;99.90;;;;;;5009851;28;20471;-76
2021/07/05 03:07:33;;;;;;;4.75;0.82;;;14.30;99.90;;;;;;5003334;28;20030;-77
2021/07/05 03:09:59;;;;;;;3.15;0.50;;;14.30;99.90;;;;;;4990285;28;20113;-76
2021/07/05 03:12:25;;;;;;;3.75;0.55;;;14.20;99.90;;;;;;4991432;28;20118;-76
2021/07/05 03:14:50;;;;;;;4.20;0.60;;;14.30;99.90;;;;;;4990424;28;20065;-76
2021/07/05 03:17:16;;;;;;;1.70;0.50;;;14.30;99.90;;;;;;4990767;28;20046;-76
2021/07/05 03:19:42;;;;;;;5.82;0.60;;;14.40;99.90;;;;;;4995154;28;20391;-76
2021/07/05 03:22:08;;;;;;;3.35;0.80;;;14.40;99.90;;;;;;5010464;28;20097;-76
2021/07/05 03:24:34;;;;;;;1.85;0.50;;;14.40;99.90;;;;;;5004455;28;20034;-76
2021/07/05 03:26:59;;;;;;;3.30;0.47;;;14.30;99.90;;;;;;5010230;28;20022;-77
2021/07/05 03:29:25;;;;;;;2.25;0.52;;;14.30;99.90;;;;;;5007542;28;20077;-76
2021/07/05 03:31:51;;;;;;;1.65;0.38;;;14.30;99.90;;;;;;4988604;28;20038;-76
2021/07/05 03:34:17;;;;;;;0.93;0.30;;;14.30;99.90;;;;;;4990005;28;20034;-76
2021/07/05 03:36:42;;;;;;;1.45;0.50;;;14.20;99.90;;;;;;5007100;28;20143;-76
2021/07/05 03:39:08;;;;;;;1.70;0.40;;;14.30;99.90;;;;;;5009165;28;20042;-76
2021/07/05 03:41:34;;;;;;;3.17;0.52;;;14.20;99.90;;;;;;4994791;28;20042;-76
2021/07/05 03:43:59;;;;;;;5.03;0.75;;;14.30;99.90;;;;;;4989911;28;20058;-76
2021/07/05 03:46:25;;;;;;;3.03;0.50;;;14.20;99.90;;;;;;4989119;28;20085;-76
2021/07/05 03:48:51;;;;;;;6.63;0.80;;;14.30;99.90;;;;;;4989888;28;20030;-76
2021/07/05 03:51:17;;;;;;;3.63;0.50;;;14.20;99.90;;;;;;4998570;28;20029;-76
2021/07/05 03:53:43;;;;;;;2.05;0.50;;;14.20;99.90;;;;;;4999237;28;20058;-77
2021/07/05 03:56:08;;;;;;;2.22;0.55;;;14.30;99.90;;;;;;4989824;28;20034;-77
2021/07/05 03:58:34;;;;;;;3.15;0.55;;;14.40;99.90;;;;;;4990083;28;20096;-76
2021/07/05 04:01:00;;;;;;;2.00;0.50;;;14.40;99.90;;;;;;4990068;28;20062;-76
2021/07/05 04:03:29;;;;;;;4.63;0.80;;;14.40;99.90;;;;;;5028363;28;20046;-76
2021/07/05 04:05:58;;;;;;;1.65;0.50;;;14.40;99.90;;;;;;5000735;28;20091;-77
2021/07/05 04:08:26;;;;;;;1.63;0.70;;;14.50;99.90;;;;;;5008138;28;20092;-76
2021/07/05 04:10:52;;;;;;;2.50;0.57;;;14.40;99.90;;;;;;4998274;28;20046;-76
2021/07/05 04:13:18;;;;;;;1.77;0.60;;;14.40;99.90;;;;;;5001722;28;20484;-76
2021/07/05 04:15:44;;;;;;;1.70;0.50;;;14.50;99.90;;;;;;4997230;28;20034;-76
2021/07/05 04:18:09;;;;;;;8.35;1.00;;;14.60;99.90;;;;;;4993806;28;20688;-76
2021/07/05 04:20:35;;;;;;;3.65;0.82;;;14.60;99.90;;;;;;5008089;28;20040;-76
2021/07/05 04:23:01;;;;;;;3.38;0.70;;;14.70;99.90;;;;;;4989364;28;20818;-77
2021/07/05 04:25:27;;;;;;;4.95;0.80;;;14.70;99.90;;;;;;4992250;28;20034;-76
2021/07/05 04:27:54;;;;;;;7.40;0.77;;;14.70;99.90;;;;;;4989092;28;20395;-77
2021/07/05 04:30:21;;;;;;;4.20;1.13;;;14.60;99.90;;;;;;4996745;28;20053;-76
2021/07/05 04:32:47;;;;;;;4.47;0.63;;;14.70;99.90;;;;;;4991563;28;20384;-76
2021/07/05 04:35:17;;;;;;;2.75;0.57;;;14.70;99.90;;;;;;4989087;28;20073;-77
2021/07/05 04:37:43;;;;;;;3.47;0.80;;;14.80;99.90;;;;;;5000288;28;20416;-77
2021/07/05 04:40:13;;;;;;;3.47;0.80;;;14.80;99.90;;;;;;5004468;28;20027;-76
2021/07/05 04:42:39;;;;;;;5.13;0.88;;;14.80;99.90;;;;;;4992895;28;20038;-76
2021/07/05 04:45:07;;;;;;;3.55;0.70;;;14.90;99.90;;;;;;4989391;28;20061;-76
2021/07/05 04:47:33;;;;;;;3.00;0.50;;;14.80;99.90;;;;;;4996034;28;20034;-76
2021/07/05 04:49:59;;;;;;;5.95;0.60;;;14.80;99.90;;;;;;5006854;28;20037;-76
2021/07/05 04:52:24;;;;;;;2.03;0.40;;;14.80;99.90;;;;;;4989427;28;20050;-76
2021/07/05 04:54:50;;;;;;;1.52;0.50;;;14.80;99.90;;;;;;4998418;28;20037;-76
2021/07/05 04:57:16;;;;;;;3.35;0.60;;;14.80;99.90;;;;;;5002682;28;20440;-76
2021/07/05 04:59:42;;;;;;;1.30;0.40;;;14.80;99.90;;;;;;5006343;28;20419;-76
2021/07/05 05:02:08;;;;;;;2.00;0.43;;;14.80;99.90;;;;;;4991817;28;20129;-76
2021/07/05 05:04:34;;;;;;;4.03;0.52;;;14.80;99.90;;;;;;4993128;28;20101;-76
2021/07/05 05:07:00;;;;;;;6.03;0.60;;;14.90;99.90;;;;;;5012801;28;20120;-76
2021/07/05 05:09:25;;;;;;;1.80;0.50;;;14.70;99.90;;;;;;5008255;28;20029;-77
2021/07/05 05:11:52;;;;;;;4.22;0.60;;;14.70;99.90;;;;;;5006186;28;20176;-77
2021/07/05 05:14:18;;;;;;;2.60;0.60;;;14.70;99.90;;;;;;5012493;28;20029;-76
2021/07/05 05:16:45;;;;;;;4.85;0.70;;;14.80;99.90;;;;;;4998471;28;20041;-77
2021/07/05 05:19:10;;;;;;;2.95;0.63;;;14.80;99.90;;;;;;5006679;28;20034;-76
2021/07/05 05:21:36;;;;;;;5.05;0.80;;;14.80;99.90;;;;;;5007579;28;20529;-76
2021/07/05 05:24:02;;;;;;;2.33;0.60;;;14.90;99.90;;;;;;5004040;28;20056;-76
2021/07/05 05:26:28;;;;;;;7.97;0.80;;;14.90;99.90;;;;;;5006132;28;20037;-77
2021/07/05 05:28:54;;;;;;;3.25;0.75;;;14.90;99.90;;;;;;5006854;28;20041;-77
2021/07/05 05:31:19;;;;;;;6.68;1.25;;;15.00;99.90;;;;;;5011358;28;20048;-77
2021/07/05 05:33:46;;;;;;;7.82;0.73;;;15.10;99.90;;;;;;5008301;28;20353;-77
2021/07/05 05:36:11;;;;;;;3.05;0.60;;;15.10;99.90;;;;;;4996190;28;20475;-77
2021/07/05 05:38:38;;;;;;;3.95;1.25;;;15.10;99.90;;;;;;5010420;28;20025;-77
2021/07/05 05:41:05;;;;;;;4.40;0.90;;;15.20;99.90;;;;;;5011761;28;20109;-76
2021/07/05 05:43:30;;;;;;;6.38;0.88;;;15.20;99.90;;;;;;5012116;28;20792;-77
2021/07/05 05:46:01;;;;;;;2.95;0.90;;;15.20;99.90;;;;;;4999494;28;20038;-77
2021/07/05 05:48:28;;;;;;;3.40;0.80;;;15.30;99.90;;;;;;5009102;28;20139;-77
2021/07/05 05:50:54;;;;;;;6.55;1.10;;;15.30;99.90;;;;;;5007943;28;20041;-77
2021/07/05 05:53:20;;;;;;;8.43;0.90;;;15.30;99.90;;;;;;5010368;28;20084;-76
2021/07/05 05:55:47;;;;;;;2.30;0.50;;;15.30;99.90;;;;;;5009903;28;20473;-77
2021/07/05 05:58:14;;;;;;;1.05;0.40;;;15.40;99.90;;;;;;5009943;28;20049;-76
2021/07/05 06:00:39;;;;;;;4.43;0.50;;;15.40;99.90;;;;;;5008392;28;20065;-77
2021/07/05 06:03:05;;;;;;;4.68;0.40;;;15.60;99.90;;;;;;5010865;28;20073;-76
2021/07/05 06:05:31;;;;;;;2.45;0.50;;;15.60;99.90;;;;;;5007982;28;20037;-77
2021/07/05 06:07:56;;;;;;;2.42;0.47;;;15.60;99.90;;;;;;5003468;28;20038;-77
2021/07/05 06:10:23;;;;;;;3.95;0.50;;;15.60;99.90;;;;;;5005392;28;20464;-76
2021/07/05 06:12:51;;;;;;;4.00;0.50;;;15.80;99.90;;;;;;5005584;28;20029;-77
2021/07/05 06:15:19;;;;;;;1.58;0.60;;;15.80;99.90;;;;;;5006230;28;20030;-76
2021/07/05 06:17:45;;;;;;;2.92;0.55;;;15.90;99.90;;;;;;5003928;28;20641;-77
2021/07/05 06:20:11;;;;;;;1.35;0.50;;;16.00;99.90;;;;;;5004045;28;20667;-76
2021/07/05 06:22:48;;;;;;;2.80;0.80;;;16.00;99.90;;;;;;5002357;28;20029;-77
2021/07/05 06:25:14;;;;;;;5.43;0.70;;;16.10;99.90;;;;;;5005688;28;20030;-77
2021/07/05 06:27:40;;;;;;;6.35;1.10;;;16.20;99.90;;;;;;5014879;28;20078;-77
2021/07/05 06:30:06;;;;;;;5.97;0.90;;;16.20;99.90;;;;;;5034720;28;20045;-77
2021/07/05 06:32:32;;;;;;;5.68;1.10;;;16.30;99.90;;;;;;5005631;28;20041;-76
2021/07/05 06:34:58;;;;;;;6.60;1.00;;;16.30;99.90;;;;;;5002044;28;20034;-77
2021/07/05 06:37:23;;;;;;;6.32;1.02;;;16.40;99.90;;;;;;5005312;28;20083;-76
2021/07/05 06:39:49;;;;;;;2.78;0.73;;;16.50;99.90;;;;;;5001191;28;20032;-77
2021/07/05 06:42:15;;;;;;;4.20;0.60;;;16.50;99.90;;;;;;4993240;28;20108;-77
2021/07/05 06:44:41;;;;;;;6.82;0.88;;;16.40;99.90;;;;;;5000366;28;20068;-77
2021/07/05 06:47:06;;;;;;;2.03;0.60;;;16.40;99.90;;;;;;5013901;28;20037;-77
2021/07/05 06:49:32;;;;;;;8.15;0.50;;;16.40;99.90;;;;;;5003139;28;20034;-77
2021/07/05 06:51:58;;;;;;;1.80;0.60;;;16.40;99.90;;;;;;5008902;28;20084;-76
2021/07/05 06:54:24;;;;;;;5.80;0.70;;;16.40;99.90;;;;;;5006497;28;20804;-76
2021/07/05 06:56:49;;;;;;;6.85;1.27;;;16.40;99.90;;;;;;5016426;28;20045;-76
2021/07/05 06:59:15;;;;;;;4.50;1.00;;;16.40;99.90;;;;;;5018972;28;20038;-77
2021/07/05 07:01:41;;;;;;;6.00;1.00;;;16.60;99.90;;;;;;5006707;28;20053;-76
2021/07/05 07:04:06;;;;;;;3.83;1.15;;;16.70;99.90;;;;;;4995309;28;20034;-76
2021/07/05 07:06:33;;;;;;;4.43;0.80;;;16.80;99.90;;;;;;4998384;28;20057;-76
2021/07/05 07:08:58;;;;;;;5.93;1.10;;;16.90;99.90;;;;;;4999529;28;20116;-76
2021/07/05 07:11:24;;;;;;;4.78;0.90;;;16.90;99.90;;;;;;5025609;28;20096;-77
2021/07/05 07:13:50;;;;;;;6.75;0.95;;;16.90;99.90;;;;;;5014730;28;20098;-77
2021/07/05 07:16:17;;;;;;;6.25;0.90;;;16.90;99.90;;;;;;5027712;22;20033;-75
2021/07/05 07:21:27;;;;;;;3.67;0.80;;;16.90;99.90;;;;;;5007903;28;20690;-77
2021/07/05 07:23:54;;;;;;;3.92;0.70;;;17.00;99.90;;;;;;4998612;28;20026;-76
2021/07/05 07:26:20;;;;;;;3.15;0.70;;;16.90;99.90;;;;;;5016015;28;20931;-77
2021/07/05 07:28:51;;;;;;;7.05;0.80;;;16.90;99.90;;;;;;5011868;28;20081;-77
2021/07/05 07:31:17;;;;;;;4.07;0.80;;;17.00;99.90;;;;;;5006585;28;20687;-76
2021/07/05 07:33:42;;;;;;;5.57;0.90;;;16.90;99.90;;;;;;5009997;28;20037;-77
2021/07/05 07:36:09;;;;;;;3.75;0.85;;;17.00;99.90;;;;;;5024134;28;20036;-77
2021/07/05 07:38:40;;;;;;;5.75;0.80;;;17.10;99.90;;;;;;5005889;28;20527;-77
2021/07/05 07:41:05;;;;;;;10.57;1.10;;;17.10;99.90;;;;;;5000416;28;20364;-77
2021/07/05 07:43:31;;;;;;;3.40;0.77;;;17.20;99.90;;;;;;5006695;28;20076;-76
2021/07/05 07:45:56;;;;;;;6.10;0.93;;;17.20;99.90;;;;;;5009246;28;20030;-77
2021/07/05 07:48:22;;;;;;;6.97;1.10;;;17.20;99.90;;;;;;5017694;28;20026;-76
2021/07/05 07:50:48;;;;;;;3.28;0.73;;;17.30;99.90;;;;;;5002652;28;20057;-77
2021/07/05 07:53:14;;;;;;;3.53;0.90;;;17.20;99.90;;;;;;4994824;28;20038;-77
2021/07/05 07:55:40;;;;;;;3.00;0.70;;;17.20;99.90;;;;;;5008441;28;20464;-76
2021/07/05 07:58:05;;;;;;;2.75;0.70;;;17.10;99.90;;;;;;5021022;28;20041;-76
2021/07/05 08:00:32;;;;;;;4.47;0.95;;;17.10;99.90;;;;;;5011690;28;20067;-76
2021/07/05 08:02:58;;;;;;;7.30;0.85;;;17.10;99.90;;;;;;5004753;28;20055;-77
2021/07/05 08:05:24;;;;;;;4.03;0.80;;;17.20;99.90;;;;;;4997207;28;20551;-76
2021/07/05 08:07:50;;;;;;;7.50;1.33;;;17.30;99.90;;;;;;5013340;28;20038;-77
2021/07/05 08:10:16;;;;;;;7.45;0.77;;;17.40;99.90;;;;;;5000611;28;20072;-76
2021/07/05 08:12:44;;;;;;;2.80;0.70;;;17.60;99.90;;;;;;5012752;28;20813;-77
2021/07/05 08:15:10;;;;;;;3.88;0.80;;;17.70;99.90;;;;;;4994443;28;20065;-76
2021/07/05 08:17:36;;;;;;;3.42;0.88;;;17.90;99.90;;;;;;5007697;28;20128;-77
2021/07/05 08:20:04;;;;;;;2.90;0.90;;;17.90;99.90;;;;;;5009023;28;20551;-77
2021/07/05 08:22:30;;;;;;;5.95;0.80;;;18.00;99.90;;;;;;5018249;28;20502;-77
2021/07/05 08:24:56;;;;;;;6.85;1.13;;;18.10;99.90;;;;;;5017314;28;20026;-77
2021/07/05 08:27:22;;;;;;;5.93;1.10;;;18.20;99.90;;;;;;5015942;28;20037;-77
2021/07/05 08:29:47;;;;;;;3.55;0.80;;;18.30;99.90;;;;;;5013817;28;20026;-77
2021/07/05 08:32:13;;;;;;;6.47;0.95;;;18.40;99.90;;;;;;5010227;28;20096;-77
2021/07/05 08:34:39;;;;;;;8.45;1.30;;;18.40;99.90;;;;;;5010391;28;20076;-77
2021/07/05 08:37:04;;;;;;;7.00;1.10;;;18.40;99.90;;;;;;5007592;28;20144;-76
2021/07/05 08:39:30;;;;;;;5.82;0.80;;;18.50;99.90;;;;;;5013385;28;20843;-77
2021/07/05 08:41:56;;;;;;;3.60;0.90;;;18.50;99.90;;;;;;5025396;28;20045;-77
2021/07/05 08:44:22;;;;;;;5.00;0.80;;;18.50;99.90;;;;;;5007360;28;20479;-77
2021/07/05 08:46:49;;;;;;;2.88;0.63;;;18.50;99.90;;;;;;5006443;28;20046;-77
2021/07/05 08:49:15;;;;;;;3.25;0.88;;;18.60;99.90;;;;;;5000000;28;20472;-77
2021/07/05 08:51:42;;;;;;;3.47;0.88;;;18.60;99.90;;;;;;5018754;28;20104;-77
2021/07/05 08:54:08;;;;;;;4.75;1.17;;;18.70;99.90;;;;;;5003664;28;20041;-77
2021/07/05 08:56:34;;;;;;;4.93;0.73;;;18.80;99.90;;;;;;5006521;28;20753;-77
2021/07/05 08:58:59;;;;;;;3.40;0.70;;;19.00;99.90;;;;;;5018676;28;20056;-77
2021/07/05 09:01:25;;;;;;;5.78;0.88;;;19.00;99.90;;;;;;5012787;28;20030;-76
2021/07/05 09:03:51;;;;;;;4.13;0.70;;;19.00;99.90;;;;;;5017456;28;20041;-77
2021/07/05 09:06:22;;;;;;;4.72;1.00;;;19.10;99.90;;;;;;5013223;28;20030;-76
2021/07/05 09:08:59;;;;;;;4.80;1.25;;;19.20;99.90;;;;;;4999608;28;20034;-77
2021/07/05 09:11:44;;;;;;;6.97;0.88;;;19.30;99.90;;;;;;5025455;28;20051;-76
2021/07/05 09:14:14;;;;;;;4.03;1.13;;;19.40;99.90;;;;;;5013827;28;20036;-77
2021/07/05 09:16:40;;;;;;;8.52;1.02;;;19.50;99.90;;;;;;5016530;28;20058;-76
2021/07/05 09:19:29;;;;;;;3.80;0.90;;;19.30;99.90;;;;;;5007872;28;20862;-77
2021/07/05 09:21:57;;;;;;;4.93;1.05;;;19.30;99.90;;;;;;5015335;28;20133;-77
2021/07/05 09:24:30;;;;;;;5.03;0.80;;;19.30;99.90;;;;;;5016016;28;20022;-76
2021/07/05 09:27:08;;;;;;;3.40;0.70;;;19.40;99.90;;;;;;5004912;28;20043;-77
2021/07/05 09:29:35;;;;;;;5.25;1.00;;;19.30;99.90;;;;;;5003704;28;20022;-77
2021/07/05 09:32:04;;;;;;;7.38;1.10;;;19.40;99.90;;;;;;5011867;28;20030;-77
2021/07/05 09:34:36;;;;;;;6.13;1.02;;;19.40;99.90;;;;;;5000018;28;20030;-77
2021/07/05 09:37:33;;;;;;;3.40;0.82;;;19.50;99.90;;;;;;5005087;28;20034;-77
2021/07/05 09:40:07;;;;;;;6.25;0.80;;;19.50;99.90;;;;;;5004458;28;20104;-77
2021/07/05 09:42:36;;;;;;;3.90;0.70;;;19.50;99.90;;;;;;5010510;28;20042;-77
2021/07/05 09:45:09;;;;;;;8.65;0.95;;;19.40;99.90;;;;;;5011248;28;20471;-77
2021/07/05 09:47:35;;;;;;;4.55;0.75;;;19.60;99.90;;;;;;5016523;28;20037;-77
2021/07/05 09:50:21;;;;;;;4.35;0.98;;;19.50;99.90;;;;;;5013043;28;20036;-77
2021/07/05 09:52:47;;;;;;;8.48;1.00;;;19.60;99.90;;;;;;5005320;28;20034;-77
2021/07/05 09:55:15;;;;;;;4.72;0.90;;;19.60;99.90;;;;;;4997526;28;20022;-77
2021/07/05 09:57:40;;;;;;;3.28;0.73;;;19.60;99.90;;;;;;5019942;28;20041;-77
2021/07/05 10:00:06;;;;;;;4.47;0.70;;;19.50;99.90;;;;;;5008363;28;20380;-77
2021/07/05 10:02:32;;;;;;;5.68;0.95;;;19.40;99.90;;;;;;5011358;28;20625;-77
2021/07/05 10:05:17;;;;;;;3.17;1.00;;;19.40;99.90;;;;;;5010390;28;20026;-77
2021/07/05 10:07:56;;;;;;;4.28;0.93;;;19.40;99.90;;;;;;5005323;28;20034;-77
2021/07/05 10:10:22;;;;;;;2.80;0.57;;;19.30;99.90;;;;;;5004139;28;20032;-77
2021/07/05 10:13:08;;;;;;;2.33;0.63;;;19.30;99.90;;;;;;5009429;28;20038;-77
2021/07/05 10:15:35;;;;;;;5.25;0.80;;;19.40;99.90;;;;;;5006460;28;20040;-77
2021/07/05 10:18:02;;;;;;;4.78;0.98;;;19.40;99.90;;;;;;5001645;28;20054;-77
2021/07/05 10:20:34;;;;;;;6.80;1.00;;;19.40;99.90;;;;;;5006891;28;20029;-77
2021/07/05 10:23:03;;;;;;;7.05;1.05;;;19.30;99.90;;;;;;5002998;28;20087;-77
2021/07/05 10:25:31;;;;;;;6.40;0.88;;;19.30;99.90;;;;;;5007296;28;20133;-77
2021/07/05 10:27:57;;;;;;;5.45;1.10;;;19.30;99.90;;;;;;5015733;28;20391;-77
2021/07/05 10:30:25;;;;;;;4.35;0.90;;;19.30;99.90;;;;;;4998464;28;20054;-77
2021/07/05 10:32:51;;;;;;;4.85;0.90;;;19.20;99.90;;;;;;5004029;28;20034;-76
2021/07/05 10:35:23;;;;;;;2.28;0.80;;;19.20;99.90;;;;;;5016278;28;20053;-77
2021/07/05 10:37:59;;;;;;;9.10;0.93;;;19.20;99.90;;;;;;5006437;28;20042;-76
2021/07/05 10:40:42;;;;;;;7.75;1.30;;;19.20;99.90;;;;;;5009427;28;20025;-77
2021/07/05 10:43:11;;;;;;;4.90;1.40;;;19.20;99.90;;;;;;4991279;28;20790;-77
2021/07/05 10:45:49;;;;;;;3.28;0.82;;;19.30;99.90;;;;;;5012981;28;20036;-77
2021/07/05 10:48:36;;;;;;;4.68;0.90;;;19.20;99.90;;;;;;5008166;28;20033;-77
2021/07/05 10:51:03;;;;;;;3.47;0.90;;;19.20;99.90;;;;;;4997272;28;20022;-77
2021/07/05 10:53:37;;;;;;;3.95;0.93;;;19.30;99.90;;;;;;5015017;28;20030;-76
2021/07/05 10:56:26;;;;;;;4.32;0.90;;;19.30;99.90;;;;;;5028867;28;20022;-76
2021/07/05 10:58:52;;;;;;;6.05;1.33;;;19.30;99.90;;;;;;5008332;28;20109;-77
2021/07/05 11:01:36;;;;;;;4.40;1.55;;;19.40;99.90;;;;;;5013293;28;20075;-77
2021/07/05 11:04:29;;;;;;;3.70;0.98;;;19.50;99.90;;;;;;5017832;28;20027;-77
2021/07/05 11:07:12;;;;;;;6.53;1.10;;;19.60;99.90;;;;;;5012703;28;20032;-77
2021/07/05 11:09:59;;;;;;;6.22;1.40;;;19.70;99.90;;;;;;5014572;28;20030;-76
2021/07/05 11:12:33;;;;;;;6.25;0.95;;;19.80;99.90;;;;;;5017731;28;20038;-76
2021/07/05 11:15:01;;;;;;;5.90;1.48;;;19.80;99.90;;;;;;4997511;28;20488;-77
2021/07/05 11:17:27;;;;;;;4.13;1.10;;;19.90;99.90;;;;;;5008615;28;20057;-77
2021/07/05 11:20:15;;;;;;;7.70;0.82;;;20.10;99.90;;;;;;5000599;28;20038;-77
2021/07/05 11:22:56;;;;;;;2.60;0.55;;;20.00;99.90;;;;;;4993316;28;20030;-76
2021/07/05 11:25:26;;;;;;;2.60;0.60;;;20.10;99.90;;;;;;4999485;28;20025;-77
2021/07/05 11:28:03;;;;;;;2.53;0.43;;;20.30;99.90;;;;;;5022230;28;20045;-77
2021/07/05 11:30:40;;;;;;;1.92;0.60;;;20.50;99.90;;;;;;5001447;28;20044;-76
2021/07/05 11:33:11;;;;;;;2.40;0.50;;;20.70;99.90;;;;;;5010871;28;20696;-77
2021/07/05 11:35:43;;;;;;;1.80;0.57;;;20.80;99.90;;;;;;5016903;28;20099;-77
2021/07/05 11:38:23;;;;;;;;;;;20.90;99.90;;;;;;4997856;28;20048;-77
2021/07/05 11:40:51;;;;;;;3.22;0.68;;;21.10;99.90;;;;;;5003925;28;19913;-76
2021/07/05 11:43:49;;;;;;;3.70;0.80;;;21.10;99.90;;;;;;5003523;28;20117;-77
2021/07/05 11:46:28;;;;;;;2.65;0.80;;;21.40;99.90;;;;;;5005417;28;20467;-77
2021/07/05 11:48:59;;;;;;;6.18;1.17;;;21.70;99.90;;;;;;5010867;28;20104;-77
2021/07/05 11:51:30;;;;;;;3.33;0.70;;;21.80;99.90;;;;;;5005939;28;20696;-77
2021/07/05 11:54:03;;;;;;;2.13;0.50;;;22.10;99.90;;;;;;5026401;28;20034;-77
2021/07/05 11:56:31;;;;;;;2.63;0.60;;;22.30;99.90;;;;;;5000010;28;20042;-77
2021/07/05 11:58:58;;;;;;;3.30;0.73;;;22.30;99.90;;;;;;5007507;28;20100;-77
2021/07/05 12:01:25;;;;;;;6.10;1.00;;;22.40;99.90;;;;;;5012525;28;20029;-77
2021/07/05 12:03:57;;;;;;;3.88;0.50;;;22.30;99.90;;;;;;5010387;28;20726;-77
2021/07/05 12:06:23;;;;;;;;;;;22.30;99.90;;;;;;5004367;28;20535;-77
2021/07/05 12:08:55;;;;;;;1.67;0.50;;;22.40;99.90;;;;;;5007526;28;19916;-77
2021/07/05 12:11:30;;;;;;;1.20;0.40;;;22.30;99.90;;;;;;5015136;28;20524;-77
2021/07/05 12:14:08;;;;;;;5.20;0.70;;;22.60;99.90;;;;;;5010441;28;20037;-77
2021/07/05 12:16:34;;;;;;;4.68;0.70;;;22.80;99.90;;;;;;5008770;28;20025;-77
2021/07/05 12:19:02;;;;;;;2.75;0.75;;;22.90;99.90;;;;;;5007001;28;20041;-77
2021/07/05 12:21:40;;;;;;;2.38;0.65;;;23.10;99.90;;;;;;5008013;28;20072;-77
2021/07/05 12:24:11;;;;;;;2.85;0.50;;;23.20;99.90;;;;;;5001356;28;20038;-77
2021/07/05 12:26:48;;;;;;;3.03;0.80;;;23.30;99.90;;;;;;5007571;28;20037;-77
2021/07/05 12:29:23;;;;;;;3.60;0.60;;;23.40;99.90;;;;;;5019557;28;20076;-77
2021/07/05 12:32:29;;;;;;;2.25;0.63;;;23.40;99.90;;;;;;5006268;28;20026;-77
2021/07/05 12:35:08;;;;;;;3.25;0.60;;;23.50;99.90;;;;;;4997521;28;20594;-77
2021/07/05 12:37:45;;;;;;;2.80;0.40;;;23.50;99.90;;;;;;5009013;28;20112;-77
2021/07/05 12:40:27;;;;;;;2.80;0.60;;;23.70;99.90;;;;;;5000201;28;20442;-77
2021/07/05 12:42:59;;;;;;;2.95;0.60;;;23.70;99.90;;;;;;5013643;28;20038;-77
2021/07/05 12:45:39;;;;;;;4.82;0.50;;;23.80;99.90;;;;;;5010423;28;21020;-77
2021/07/05 12:48:14;;;;;;;1.88;0.60;;;24.00;99.90;;;;;;5000235;28;20041;-77
2021/07/05 12:50:45;;;;;;;3.10;0.60;;;24.00;99.90;;;;;;5016484;28;20104;-77
2021/07/05 12:53:19;;;;;;;5.07;0.60;;;24.00;99.90;;;;;;4999290;28;20045;-77
2021/07/05 12:55:57;;;;;;;4.95;0.60;;;24.10;99.90;;;;;;5017195;28;20682;-77
2021/07/05 12:58:37;;;;;;;4.10;0.60;;;24.30;99.90;;;;;;5002609;28;20026;-77